Overview Statistics Trail Chart Weather Telemetry Raw packets
 

This is the latest recevied weather packets stored in our database for station/object DL5DI-H. If no packets are shown the sender has not sent any weather packets the latest 10 day(s).

<< 21 22 23 24 25 26 27 >>
Time Temp. Humidity Pressure Rain* Wind** Luminosity Snow
1788378002 18.89° C 62% 1022.2 hPa 0 mm - - -
1788376200 20° C 59% 1022 hPa 0 mm - - -
1788375601 20° C 59% 1022 hPa 0 mm - - -
1788375002 20.56° C 58% 1021.9 hPa 0 mm - - -
1788374401 20.56° C 56% 1021.8 hPa 0 mm - - -
1788373800 21.67° C 53% 1021.4 hPa 0 mm - - -
1788373202 21.67° C 53% 1021.3 hPa 0 mm - - -
1788372600 21.67° C 53% 1021.3 hPa 0 mm - - -
1788372000 22.22° C 51% 1021.3 hPa 0 mm - - -
1788371402 22.78° C 50% 1021.2 hPa 0 mm - - -
1788370800 22.78° C 50% 1021.2 hPa 0 mm - - -
1788370202 22.78° C 49% 1021.3 hPa 0 mm - - -
1788369602 23.33° C 48% 1021.3 hPa 0 mm - - -
1788369002 23.33° C 48% 1021.3 hPa 0 mm - - -
1788368401 23.89° C 47% 1021.2 hPa 0 mm - - -
1788367802 24.44° C 46% 1021.2 hPa 0 mm - - -
1788367202 24.44° C 46% 1021.2 hPa 0 mm - - -
1788366602 24.44° C 46% 1021.2 hPa 0 mm - - -
1788366001 23.89° C 47% 1021.2 hPa 0 mm - - -
1788365402 23.89° C 47% 1021.2 hPa 0 mm - - -
1788364800 24.44° C 47% 1021.2 hPa 0 mm - - -
1788364202 24.44° C 46% 1021.2 hPa 0 mm - - -
1788363602 24.44° C 46% 1021.2 hPa 0 mm - - -
1788363001 25° C 45% 1021.3 hPa 0 mm - - -
1788362400 25.56° C 43% 1021.3 hPa 0 mm - - -

* Rain latest hour (hover to see other rain measurements)
** Current wind speed in m/s (hover to see current wind gust speed)